Time;durP1;ratioP1;P1;durP2;ratioP2;P2;SDS_P1;SDS_P2;PMS_P1;PMS_P2;Temp;Humidity;BMP_temperature;BMP_pressure;BME280_temperature;BME280_humidity;BME280_pressure;Samples;Min_cycle;Max_cycle;Signal;HPM_P1;HPM_P2
2021/08/09 00:01:28;;;;;;;;;;;;;;;26.70;36.90;99732.28;5112521;28;19907;-36
2021/08/09 00:03:54;;;;;;;;;;;;;;;26.56;37.32;99732.34;5111993;28;19994;-36
2021/08/09 00:06:23;;;;;;;;;;;;;;;26.71;37.40;99728.44;5111824;28;20323;-36
2021/08/09 00:08:48;;;;;;;;;;;;;;;26.75;37.36;99732.19;5111616;28;19908;-36
2021/08/09 00:11:13;;;;;;;;;;;;;;;26.85;37.63;99731.91;5111716;28;19999;-37
2021/08/09 00:13:39;;;;;;;;;;;;;;;26.92;37.58;99731.44;5111590;28;19907;-36
2021/08/09 00:16:04;;;;;;;;;;;;;;;26.89;37.72;99727.44;5111669;28;19998;-37
2021/08/09 00:18:30;;;;;;;;;;;;;;;26.94;37.70;99729.22;5111717;28;20366;-37
2021/08/09 00:20:57;;;;;;;;;;;;;;;26.84;38.00;99726.75;5111495;28;20025;-37
2021/08/09 00:23:22;;;;;;;;;;;;;;;26.77;38.11;99727.22;5111560;28;19911;-38
2021/08/09 00:25:47;;;;;;;;;;;;;;;26.65;38.37;99721.50;5111429;28;19907;-38
2021/08/09 00:28:13;;;;;;;;;;;;;;;26.72;38.42;99730.84;5111413;28;19931;-37
2021/08/09 00:30:38;;;;;;;;;;;;;;;26.92;38.01;99723.25;5111544;28;19908;-38
2021/08/09 00:33:03;;;;;;;;;;;;;;;26.95;38.06;99728.09;5111471;28;19908;-37
2021/08/09 00:35:29;;;;;;;;;;;;;;;26.93;38.31;99727.59;5111505;28;19915;-37
2021/08/09 00:37:54;;;;;;;;;;;;;;;26.79;38.70;99727.69;5111612;28;19914;-37
2021/08/09 00:40:20;;;;;;;;;;;;;;;26.82;38.65;99729.00;5110949;28;20069;-37
2021/08/09 00:42:45;;;;;;;;;;;;;;;26.77;38.92;99715.47;5111265;28;19908;-37
2021/08/09 00:45:10;;;;;;;;;;;;;;;26.60;39.26;99714.25;5111055;28;19908;-37
2021/08/09 00:47:36;;;;;;;;;;;;;;;26.60;39.18;99717.00;5111217;28;20093;-37
2021/08/09 00:50:01;;;;;;;;;;;;;;;26.72;39.27;99719.13;5110771;28;19956;-38
2021/08/09 00:52:26;;;;;;;;;;;;;;;26.53;39.48;99720.09;5111117;28;19919;-37
2021/08/09 00:54:52;;;;;;;;;;;;;;;26.47;39.64;99713.16;5111345;28;19947;-37
2021/08/09 00:57:17;;;;;;;;;;;;;;;26.55;39.83;99719.00;5111013;28;20335;-37
2021/08/09 00:59:42;;;;;;;;;;;;;;;26.78;39.31;99730.72;5111372;28;19969;-37
2021/08/09 01:02:08;;;;;;;;;;;;;;;26.63;39.79;99729.19;5111409;28;19912;-37
2021/08/09 01:04:33;;;;;;;;;;;;;;;26.57;40.00;99730.41;5111207;28;19914;-37
2021/08/09 01:06:58;;;;;;;;;;;;;;;26.44;40.30;99735.59;5110861;28;19908;-37
2021/08/09 01:09:35;;;;;;;;;;;;;;;26.50;40.23;99739.00;5092738;28;19908;-37
2021/08/09 01:12:04;;;;;;;;;;;;;;;26.53;40.06;99736.47;5092915;28;20358;-37
2021/08/09 01:14:46;;;;;;;;;;;;;;;26.46;40.21;99735.31;5110892;28;20029;-37
2021/08/09 01:17:11;;;;;;;;;;;;;;;26.39;40.31;99737.66;5110767;28;19920;-37
2021/08/09 01:19:52;;;;;;;;;;;;;;;26.48;40.16;99738.53;5092724;28;20053;-37
2021/08/09 01:22:17;;;;;;;;;;;;;;;26.61;40.32;99742.34;5111098;28;19915;-36
2021/08/09 01:24:47;;;;;;;;;;;;;;;26.57;40.15;99747.59;5110960;28;19908;-37
2021/08/09 01:27:23;;;;;;;;;;;;;;;26.74;40.06;99746.94;5096462;28;19907;-37
2021/08/09 01:29:48;;;;;;;;;;;;;;;26.73;40.10;99753.50;5097036;28;19908;-37
2021/08/09 01:32:13;;;;;;;;;;;;;;;26.50;40.96;99741.75;5115243;28;19908;-37
2021/08/09 01:34:38;;;;;;;;;;;;;;;26.53;40.75;99743.88;5096405;28;19907;-37
2021/08/09 01:37:04;;;;;;;;;;;;;;;25.90;42.06;99743.63;5114932;28;19907;-37
2021/08/09 01:39:29;;;;;;;;;;;;;;;26.05;42.00;99744.44;5114663;28;19922;-37
2021/08/09 01:41:54;;;;;;;;;;;;;;;26.06;41.75;99740.59;5114514;28;19983;-37
2021/08/09 01:44:20;;;;;;;;;;;;;;;26.06;41.75;99741.38;5114768;28;19968;-37
2021/08/09 01:46:45;;;;;;;;;;;;;;;26.02;41.67;99739.59;5096257;28;20221;-37
2021/08/09 01:49:10;;;;;;;;;;;;;;;25.81;41.64;99740.00;5096253;28;19951;-37
2021/08/09 01:51:36;;;;;;;;;;;;;;;25.47;42.23;99738.50;5114459;28;19907;-37
2021/08/09 01:54:01;;;;;;;;;;;;;;;25.64;41.63;99740.63;5114557;28;19908;-37
2021/08/09 01:56:27;;;;;;;;;;;;;;;25.81;41.43;99737.28;5114305;28;20038;-37
2021/08/09 01:58:52;;;;;;;;;;;;;;;25.96;41.13;99736.16;5096251;28;19908;-37
2021/08/09 02:01:18;;;;;;;;;;;;;;;26.03;40.86;99733.03;5114628;28;20013;-37
2021/08/09 02:03:43;;;;;;;;;;;;;;;25.89;40.97;99738.47;5114175;28;19972;-37
2021/08/09 02:06:09;;;;;;;;;;;;;;;25.98;41.29;99736.66;5114035;28;19907;-36
2021/08/09 02:08:35;;;;;;;;;;;;;;;26.04;40.11;99743.63;5114256;28;19907;-37
2021/08/09 02:11:02;;;;;;;;;;;;;;;25.92;40.07;99735.19;5095790;28;19922;-37
2021/08/09 02:13:32;;;;;;;;;;;;;;;25.89;39.91;99731.13;5114011;28;19996;-37
2021/08/09 02:15:58;;;;;;;;;;;;;;;25.93;39.12;99732.16;5114178;28;19919;-37
2021/08/09 02:18:42;;;;;;;;;;;;;;;25.79;39.58;99742.22;5095256;28;20022;-37
2021/08/09 02:21:08;;;;;;;;;;;;;;;25.79;39.82;99746.88;5113959;28;19916;-37
2021/08/09 02:23:40;;;;;;;;;;;;;;;26.03;39.14;99735.75;5113992;28;19968;-37
2021/08/09 02:26:05;;;;;;;;;;;;;;;26.06;38.99;99743.31;5114024;28;19907;-37
2021/08/09 02:28:31;;;;;;;;;;;;;;;26.08;39.13;99743.81;5113839;28;19931;-37
2021/08/09 02:30:57;;;;;;;;;;;;;;;26.19;38.59;99744.41;5095719;28;19911;-37
2021/08/09 02:33:23;;;;;;;;;;;;;;;26.13;38.71;99747.22;5114023;28;19911;-37
2021/08/09 02:35:48;;;;;;;;;;;;;;;26.10;38.81;99742.41;5113410;28;19965;-37
2021/08/09 02:38:13;;;;;;;;;;;;;;;26.04;39.05;99740.09;5095195;28;19933;-37
2021/08/09 02:40:38;;;;;;;;;;;;;;;26.07;39.39;99750.41;5095202;28;20010;-37
2021/08/09 02:43:04;;;;;;;;;;;;;;;25.98;39.68;99741.31;5113260;28;19911;-37
2021/08/09 02:45:29;;;;;;;;;;;;;;;26.00;39.57;99748.06;5095097;28;19908;-36
2021/08/09 02:47:54;;;;;;;;;;;;;;;25.88;40.00;99758.69;5095352;28;19998;-37
2021/08/09 02:50:19;;;;;;;;;;;;;;;25.93;40.05;99743.06;5094732;28;20025;-36
2021/08/09 02:52:45;;;;;;;;;;;;;;;26.00;39.56;99745.34;5095098;28;19947;-36
2021/08/09 02:55:10;;;;;;;;;;;;;;;25.84;39.64;99750.31;5094968;28;20273;-36
2021/08/09 02:57:36;;;;;;;;;;;;;;;25.87;40.07;99755.13;5095118;28;19908;-36
2021/08/09 03:00:01;;;;;;;;;;;;;;;25.85;40.18;99760.06;5112904;28;19916;-36
2021/08/09 03:02:28;;;;;;;;;;;;;;;26.04;40.07;99759.19;5095247;28;19973;-36
2021/08/09 03:04:53;;;;;;;;;;;;;;;26.07;39.96;99759.38;5113252;28;20423;-36
2021/08/09 03:07:18;;;;;;;;;;;;;;;26.03;40.32;99763.81;5094526;28;20493;-36
2021/08/09 03:09:43;;;;;;;;;;;;;;;26.17;39.75;99763.78;5113120;28;20339;-36
2021/08/09 03:12:11;;;;;;;;;;;;;;;26.03;40.17;99763.03;5112674;28;19931;-36
2021/08/09 03:14:36;;;;;;;;;;;;;;;26.01;40.58;99781.59;5112975;28;19911;-37
2021/08/09 03:17:02;;;;;;;;;;;;;;;26.03;40.66;99791.09;5112776;28;19927;-37
2021/08/09 03:19:28;;;;;;;;;;;;;;;26.17;40.57;99785.59;5112456;28;19912;-36
2021/08/09 03:21:53;;;;;;;;;;;;;;;26.04;40.64;99789.16;5112577;28;19914;-36
2021/08/09 03:24:19;;;;;;;;;;;;;;;25.98;41.03;99798.56;5112575;28;19951;-36
2021/08/09 03:26:44;;;;;;;;;;;;;;;26.07;40.92;99803.00;5112708;28;19914;-37
2021/08/09 03:29:09;;;;;;;;;;;;;;;25.52;41.53;99797.53;5112720;28;20337;-37
2021/08/09 03:31:35;;;;;;;;;;;;;;;25.70;41.71;99812.16;5112705;28;19907;-37
2021/08/09 03:34:00;;;;;;;;;;;;;;;25.51;41.44;99785.84;5112449;28;19912;-37
2021/08/09 03:36:25;;;;;;;;;;;;;;;25.72;41.18;99809.94;5112378;28;19907;-37
2021/08/09 03:38:51;;;;;;;;;;;;;;;25.76;41.05;99808.25;5112436;28;19908;-37
2021/08/09 03:41:16;;;;;;;;;;;;;;;25.49;41.71;99819.94;5112245;28;19911;-37
2021/08/09 03:43:41;;;;;;;;;;;;;;;25.61;41.46;99811.25;5111050;28;19908;-34
2021/08/09 03:46:07;;;;;;;;;;;;;;;25.83;40.82;99811.34;5110704;28;20331;-37
2021/08/09 03:48:32;;;;;;;;;;;;;;;25.94;40.73;99810.06;5109983;28;19908;-37
2021/08/09 03:50:58;;;;;;;;;;;;;;;26.03;40.64;99812.91;5111750;28;19931;-37
2021/08/09 03:53:23;;;;;;;;;;;;;;;25.87;41.21;99817.81;5111867;28;20056;-37
2021/08/09 03:55:48;;;;;;;;;;;;;;;25.95;40.96;99824.53;5111910;28;19907;-37
2021/08/09 03:58:14;;;;;;;;;;;;;;;25.94;41.01;99820.19;5111756;28;19955;-37
2021/08/09 04:00:40;;;;;;;;;;;;;;;25.70;41.56;99821.16;5111907;28;19919;-36
2021/08/09 04:03:05;;;;;;;;;;;;;;;25.93;41.06;99830.28;5112173;28;19984;-38
2021/08/09 04:05:31;;;;;;;;;;;;;;;26.36;40.04;99820.91;5093907;28;19946;-35
2021/08/09 04:07:56;;;;;;;;;;;;;;;26.75;39.55;99832.34;5111829;28;20326;-35
2021/08/09 04:10:21;;;;;;;;;;;;;;;27.05;38.82;99834.31;5111737;28;19924;-36
2021/08/09 04:12:47;;;;;;;;;;;;;;;27.51;37.86;99832.34;5093511;28;20060;-36
2021/08/09 04:15:12;;;;;;;;;;;;;;;28.03;36.84;99829.03;5111759;28;20347;-36
2021/08/09 04:17:37;;;;;;;;;;;;;;;28.45;35.95;99830.22;5111550;28;20006;-37
2021/08/09 04:20:03;;;;;;;;;;;;;;;28.57;35.69;99824.13;5111548;28;19912;-36
2021/08/09 04:22:28;;;;;;;;;;;;;;;28.84;35.04;99827.66;5111048;28;20167;-37
2021/08/09 04:24:53;;;;;;;;;;;;;;;29.26;33.88;99825.19;5111478;28;19915;-37
2021/08/09 04:27:18;;;;;;;;;;;;;;;29.44;33.34;99825.94;5111463;28;19907;-37
2021/08/09 04:29:44;;;;;;;;;;;;;;;29.82;32.69;99823.22;5111410;28;20010;-37
2021/08/09 04:32:15;;;;;;;;;;;;;;;30.06;32.66;99832.75;5111343;28;19972;-37
2021/08/09 04:34:41;;;;;;;;;;;;;;;30.38;32.51;99828.53;5111638;28;19911;-37
2021/08/09 04:37:06;;;;;;;;;;;;;;;30.76;31.42;99826.78;5111154;28;19930;-37
2021/08/09 04:39:31;;;;;;;;;;;;;;;30.80;31.38;99834.00;5111259;28;20010;-36
2021/08/09 04:41:56;;;;;;;;;;;;;;;31.13;31.13;99824.16;5111047;28;20313;-37
2021/08/09 04:44:22;;;;;;;;;;;;;;;31.34;30.60;99829.63;5111159;28;19908;-37
2021/08/09 04:46:47;;;;;;;;;;;;;;;31.51;30.25;99829.44;5111234;28;20290;-37
2021/08/09 04:49:12;;;;;;;;;;;;;;;32.01;29.27;99830.22;5111376;28;19915;-37
2021/08/09 04:51:37;;;;;;;;;;;;;;;32.22;28.55;99827.38;5111130;28;20375;-37
2021/08/09 04:54:03;;;;;;;;;;;;;;;32.41;28.41;99823.19;5111218;28;19915;-36
2021/08/09 04:56:28;;;;;;;;;;;;;;;32.96;27.91;99838.16;5111113;28;19908;-36
2021/08/09 04:58:53;;;;;;;;;;;;;;;33.40;27.23;99838.16;5111064;28;19994;-36
2021/08/09 05:01:19;;;;;;;;;;;;;;;33.66;26.77;99839.59;5113694;28;20367;-36
2021/08/09 05:03:45;;;;;;;;;;;;;;;33.88;26.30;99844.47;5115151;28;19956;-37
2021/08/09 05:06:11;;;;;;;;;;;;;;;34.18;25.72;99841.22;5114826;28;20322;-36
2021/08/09 05:08:37;;;;;;;;;;;;;;;34.42;25.58;99850.41;5115197;28;19907;-37
2021/08/09 05:11:02;;;;;;;;;;;;;;;34.69;24.66;99848.66;5114981;28;19931;-36
2021/08/09 05:13:27;;;;;;;;;;;;;;;35.06;23.96;99848.16;5114799;28;20295;-36
2021/08/09 05:15:52;;;;;;;;;;;;;;;35.31;23.80;99853.38;5115309;28;19912;-42
2021/08/09 05:18:18;;;;;;;;;;;;;;;35.36;23.60;99855.84;5114938;28;20360;-36
2021/08/09 05:20:44;;;;;;;;;;;;;;;35.61;22.55;99850.72;5114950;28;20010;-36
2021/08/09 05:23:09;;;;;;;;;;;;;;;35.95;21.96;99856.44;5116240;28;19908;-37
2021/08/09 05:25:35;;;;;;;;;;;;;;;36.21;22.18;99850.09;5115724;28;19915;-38
2021/08/09 05:28:00;;;;;;;;;;;;;;;36.48;22.30;99850.84;5115921;28;19912;-43
2021/08/09 05:30:26;;;;;;;;;;;;;;;36.68;22.05;99859.03;5114907;28;19907;-37
2021/08/09 05:32:51;;;;;;;;;;;;;;;36.84;21.66;99856.03;5114530;28;19907;-36
2021/08/09 05:35:16;;;;;;;;;;;;;;;36.87;21.66;99858.06;5114979;28;19916;-37
2021/08/09 05:37:41;;;;;;;;;;;;;;;37.09;21.47;99851.56;5096470;28;20294;-37
2021/08/09 05:40:07;;;;;;;;;;;;;;;37.48;21.50;99850.38;5114432;28;20007;-38
2021/08/09 05:42:32;;;;;;;;;;;;;;;37.44;21.22;99857.88;5114535;28;20279;-40
2021/08/09 05:44:58;;;;;;;;;;;;;;;37.93;20.93;99853.91;5115141;28;19908;-36
2021/08/09 05:47:23;;;;;;;;;;;;;;;37.97;20.92;99854.72;5114637;28;20343;-40
2021/08/09 05:49:48;;;;;;;;;;;;;;;38.25;20.36;99859.69;5115175;28;19908;-36
2021/08/09 05:52:23;;;;;;;;;;;;;;;38.55;20.28;99866.97;5114521;28;19915;-36
2021/08/09 05:54:48;;;;;;;;;;;;;;;38.15;20.72;99868.75;5113839;28;20416;-37
2021/08/09 05:57:14;;;;;;;;;;;;;;;37.80;21.20;99858.19;5114090;28;20046;-35
2021/08/09 05:59:39;;;;;;;;;;;;;;;37.84;21.05;99865.34;5114151;28;19911;-37
2021/08/09 06:02:04;;;;;;;;;;;;;;;38.31;20.79;99860.91;5114237;28;20049;-37
2021/08/09 06:04:31;;;;;;;;;;;;;;;38.63;20.19;99862.25;5113801;28;19998;-36
2021/08/09 06:06:56;;;;;;;;;;;;;;;38.53;20.43;99870.16;5113975;28;19914;-37
2021/08/09 06:09:21;;;;;;;;;;;;;;;38.17;20.91;99860.81;5095842;28;19994;-37
2021/08/09 06:11:46;;;;;;;;;;;;;;;37.82;21.32;99864.16;5113159;28;19980;-38
2021/08/09 06:14:12;;;;;;;;;;;;;;;37.91;21.25;99868.19;5113834;28;20059;-38
2021/08/09 06:16:37;;;;;;;;;;;;;;;37.91;21.24;99864.63;5113483;28;19920;-37
2021/08/09 06:19:02;;;;;;;;;;;;;;;37.90;21.23;99863.78;5113787;28;19911;-37
2021/08/09 06:21:28;;;;;;;;;;;;;;;38.32;21.02;99861.69;5094906;28;19995;-38
2021/08/09 06:23:53;;;;;;;;;;;;;;;38.17;20.96;99860.03;5113569;28;19943;-38
2021/08/09 06:26:18;;;;;;;;;;;;;;;37.73;21.59;99856.13;5113363;28;20002;-37
2021/08/09 06:28:43;;;;;;;;;;;;;;;37.97;21.39;99853.91;5113223;28;19956;-38
2021/08/09 06:31:09;;;;;;;;;;;;;;;38.19;21.38;99855.66;5113372;28;19915;-37
2021/08/09 06:33:34;;;;;;;;;;;;;;;39.07;20.81;99866.75;5113756;28;20006;-38
2021/08/09 06:35:59;;;;;;;;;;;;;;;37.78;21.40;99866.09;5113927;28;19908;-38
2021/08/09 06:38:25;;;;;;;;;;;;;;;38.07;21.49;99856.78;5113415;28;19908;-37
2021/08/09 06:40:50;;;;;;;;;;;;;;;38.44;20.96;99835.53;5113369;28;20345;-38
2021/08/09 06:43:15;;;;;;;;;;;;;;;38.98;20.71;99858.00;5113142;28;19915;-37
2021/08/09 06:45:43;;;;;;;;;;;;;;;39.74;19.79;99856.91;5113060;28;19934;-38
2021/08/09 06:48:11;;;;;;;;;;;;;;;40.23;19.19;99852.44;5113237;28;20347;-38
2021/08/09 06:50:36;;;;;;;;;;;;;;;40.30;19.59;99845.25;5113475;28;20442;-38
2021/08/09 06:53:02;;;;;;;;;;;;;;;40.61;18.91;99851.91;5113122;28;20016;-38
2021/08/09 06:55:28;;;;;;;;;;;;;;;40.88;19.08;99845.81;5112846;28;19916;-39
2021/08/09 06:57:53;;;;;;;;;;;;;;;40.69;18.75;99842.34;5112730;28;20390;-39
2021/08/09 07:00:18;;;;;;;;;;;;;;;40.59;18.57;99846.75;5112684;28;19916;-39
2021/08/09 07:02:44;;;;;;;;;;;;;;;40.56;19.29;99844.78;5112540;28;19994;-36
2021/08/09 07:05:09;;;;;;;;;;;;;;;40.83;18.83;99845.06;5112836;28;19908;-37
2021/08/09 07:07:36;;;;;;;;;;;;;;;40.58;18.71;99845.16;5112829;28;19908;-37
2021/08/09 07:10:02;;;;;;;;;;;;;;;40.67;19.05;99843.91;5112582;28;19915;-37
2021/08/09 07:12:27;;;;;;;;;;;;;;;40.11;18.92;99833.38;5112398;28;19911;-37
2021/08/09 07:14:52;;;;;;;;;;;;;;;40.74;18.60;99843.88;5112413;28;19908;-37
2021/08/09 07:17:17;;;;;;;;;;;;;;;40.37;18.66;99832.13;5112444;28;19927;-37
2021/08/09 07:19:43;;;;;;;;;;;;;;;40.09;18.93;99837.75;5112509;28;19919;-37
2021/08/09 07:22:08;;;;;;;;;;;;;;;40.20;19.01;99841.31;5112379;28;19961;-37
2021/08/09 07:24:34;;;;;;;;;;;;;;;40.64;18.92;99839.97;5111731;28;19914;-38
2021/08/09 07:27:00;;;;;;;;;;;;;;;40.93;18.58;99845.41;5112146;28;19998;-38
2021/08/09 07:29:27;;;;;;;;;;;;;;;39.94;18.99;99845.34;5112525;28;20416;-38
2021/08/09 07:31:52;;;;;;;;;;;;;;;40.58;18.88;99842.38;5112402;28;20434;-38
2021/08/09 07:34:18;;;;;;;;;;;;;;;41.07;18.49;99838.94;5093990;28;20002;-38
2021/08/09 07:36:43;;;;;;;;;;;;;;;41.54;18.16;99834.59;5112005;28;19957;-38
2021/08/09 07:39:08;;;;;;;;;;;;;;;42.08;17.43;99833.28;5111575;28;20367;-38
2021/08/09 07:41:34;;;;;;;;;;;;;;;41.61;18.10;99837.31;5112439;28;19967;-38
2021/08/09 07:43:59;;;;;;;;;;;;;;;40.73;19.19;99839.53;5111926;28;20231;-38
2021/08/09 07:46:25;;;;;;;;;;;;;;;41.32;18.24;99828.41;5112020;28;19908;-38
2021/08/09 07:48:50;;;;;;;;;;;;;;;41.52;18.15;99836.22;5112107;28;19950;-38
2021/08/09 07:51:16;;;;;;;;;;;;;;;41.52;17.98;99834.22;5111899;28;19939;-38
2021/08/09 07:53:41;;;;;;;;;;;;;;;40.85;18.98;99836.28;5093555;28;20002;-38
2021/08/09 07:56:06;;;;;;;;;;;;;;;41.40;18.54;99826.34;5111447;28;19915;-39
2021/08/09 07:58:31;;;;;;;;;;;;;;;41.04;18.71;99829.38;5111699;28;19947;-38
2021/08/09 08:00:58;;;;;;;;;;;;;;;40.60;18.88;99798.16;5111337;28;20378;-38
2021/08/09 08:03:24;;;;;;;;;;;;;;;41.26;18.54;99830.06;5111392;28;19915;-38
2021/08/09 08:05:49;;;;;;;;;;;;;;;41.68;18.60;99830.09;5111497;28;19907;-38
2021/08/09 08:08:14;;;;;;;;;;;;;;;41.10;18.47;99824.16;5111432;28;19907;-38
2021/08/09 08:10:40;;;;;;;;;;;;;;;41.75;18.22;99818.88;5111378;28;19908;-38
2021/08/09 08:13:05;;;;;;;;;;;;;;;41.74;18.34;99817.28;5111215;28;19907;-37
2021/08/09 08:15:30;;;;;;;;;;;;;;;41.32;18.12;99822.81;5111441;28;19984;-37
2021/08/09 08:17:55;;;;;;;;;;;;;;;41.35;18.37;99826.78;5111003;28;19937;-37
2021/08/09 08:20:21;;;;;;;;;;;;;;;41.79;17.74;99823.22;5111269;28;19951;-37
2021/08/09 08:22:46;;;;;;;;;;;;;;;40.80;18.88;99809.63;5111194;28;19914;-37
2021/08/09 08:25:13;;;;;;;;;;;;;;;41.63;18.02;99814.59;5111242;28;19920;-38
2021/08/09 08:27:38;;;;;;;;;;;;;;;41.53;17.85;99809.88;5111518;28;20266;-38
2021/08/09 08:30:04;;;;;;;;;;;;;;;40.27;18.75;99799.50;5111396;28;19908;-38
2021/08/09 08:32:29;;;;;;;;;;;;;;;39.93;19.59;99797.22;5111361;28;19908;-38
2021/08/09 08:34:54;;;;;;;;;;;;;;;40.53;18.71;99803.75;5110948;28;19937;-37
2021/08/09 08:37:20;;;;;;;;;;;;;;;40.60;18.14;99802.94;5111257;28;20010;-38
2021/08/09 08:39:45;;;;;;;;;;;;;;;39.23;19.54;99799.63;5111267;28;20006;-38
2021/08/09 08:42:13;;;;;;;;;;;;;;;40.06;18.81;99800.34;5111377;28;19926;-39
2021/08/09 08:44:39;;;;;;;;;;;;;;;39.87;19.40;99799.59;5076347;28;19915;-38
2021/08/09 08:47:04;;;;;;;;;;;;;;;40.19;18.53;99804.28;5111082;28;19907;-38
2021/08/09 08:49:29;;;;;;;;;;;;;;;40.80;18.72;99798.47;5111232;28;19907;-38
2021/08/09 08:51:55;;;;;;;;;;;;;;;41.68;17.72;99797.41;5093161;28;19918;-38
2021/08/09 08:54:20;;;;;;;;;;;;;;;41.58;17.51;99792.66;5111020;28;19918;-38
2021/08/09 08:56:45;;;;;;;;;;;;;;;41.74;17.44;99792.94;5110686;28;19908;-38
2021/08/09 08:59:18;;;;;;;;;;;;;;;41.46;17.48;99793.19;5110615;28;20014;-39
2021/08/09 09:01:47;;;;;;;;;;;;;;;42.47;17.05;99792.94;5110871;28;19907;-38
2021/08/09 09:04:19;;;;;;;;;;;;;;;43.02;15.88;99791.72;5110706;28;19908;-38
2021/08/09 09:06:44;;;;;;;;;;;;;;;43.04;16.24;99794.91;5110667;28;19943;-39
2021/08/09 09:09:19;;;;;;;;;;;;;;;43.04;16.03;99777.31;5110602;28;19965;-38
2021/08/09 09:11:44;;;;;;;;;;;;;;;43.47;15.64;99793.38;5092084;28;20315;-38
2021/08/09 09:14:09;;;;;;;;;;;;;;;43.71;15.88;99791.38;5110800;28;19947;-38
2021/08/09 09:16:44;;;;;;;;;;;;;;;43.27;16.33;99785.72;5110704;28;19988;-38
2021/08/09 09:19:10;;;;;;;;;;;;;;;43.61;15.56;99783.97;5110667;28;19911;-38
2021/08/09 09:21:36;;;;;;;;;;;;;;;42.09;16.31;99785.38;5110505;28;20275;-37
2021/08/09 09:24:09;;;;;;;;;;;;;;;41.54;16.41;99775.94;5110823;28;19945;-39
2021/08/09 09:26:35;;;;;;;;;;;;;;;42.02;16.62;99777.06;5110504;28;20279;-37
2021/08/09 09:29:13;;;;;;;;;;;;;;;41.47;16.55;99769.66;5110379;28;19916;-38
2021/08/09 09:31:39;;;;;;;;;;;;;;;42.14;15.76;99767.38;5110300;28;19964;-38
2021/08/09 09:34:09;;;;;;;;;;;;;;;41.41;16.82;99772.09;5110591;28;19919;-39
2021/08/09 09:36:45;;;;;;;;;;;;;;;41.42;16.61;99762.53;5110344;28;20266;-39
2021/08/09 09:39:37;;;;;;;;;;;;;;;40.29;18.55;99763.66;5110476;28;19999;-39
2021/08/09 09:42:06;;;;;;;;;;;;;;;41.72;16.94;99763.84;5106009;28;20359;-38
2021/08/09 09:44:31;;;;;;;;;;;;;;;42.35;16.24;99752.31;5110154;28;19935;-39
2021/08/09 09:47:15;;;;;;;;;;;;;;;42.03;16.40;99758.31;5112816;28;19908;-36
2021/08/09 09:49:41;;;;;;;;;;;;;;;42.22;16.35;99754.88;5114379;28;20328;-38
2021/08/09 09:52:06;;;;;;;;;;;;;;;42.45;16.07;99754.16;5114322;28;19957;-38
2021/08/09 09:54:31;;;;;;;;;;;;;;;42.43;16.00;99744.63;5095777;28;19918;-38
2021/08/09 09:56:56;;;;;;;;;;;;;;;41.63;16.83;99744.00;5113988;28;19912;-38
2021/08/09 09:59:22;;;;;;;;;;;;;;;41.25;17.76;99735.59;5095891;28;20404;-44
2021/08/09 10:01:49;;;;;;;;;;;;;;;41.98;16.79;99742.78;5114220;28;19915;-39
2021/08/09 10:04:14;;;;;;;;;;;;;;;41.78;17.43;99737.03;5114258;28;20357;-38
2021/08/09 10:06:40;;;;;;;;;;;;;;;42.91;16.09;99743.53;5114014;28;19994;-38
2021/08/09 10:09:08;;;;;;;;;;;;;;;43.20;15.90;99741.03;5113857;28;19907;-38
2021/08/09 10:11:34;;;;;;;;;;;;;;;42.89;16.04;99738.38;5113338;28;19923;-38
2021/08/09 10:13:59;;;;;;;;;;;;;;;43.42;15.44;99738.69;5095538;28;19907;-38
2021/08/09 10:16:31;;;;;;;;;;;;;;;43.78;15.06;99740.03;5113842;28;20294;-38
2021/08/09 10:18:56;;;;;;;;;;;;;;;43.96;15.24;99739.66;5095740;28;19965;-38
2021/08/09 10:21:23;;;;;;;;;;;;;;;44.52;14.17;99734.09;5113764;28;19916;-38
2021/08/09 10:23:49;;;;;;;;;;;;;;;44.61;14.77;99736.28;5113667;28;19908;-38
2021/08/09 10:26:14;;;;;;;;;;;;;;;43.82;15.28;99738.75;5114122;28;19998;-38
2021/08/09 10:28:55;;;;;;;;;;;;;;;44.55;14.61;99727.59;5113605;28;20299;-39
2021/08/09 10:31:23;;;;;;;;;;;;;;;44.93;13.95;99735.50;5113364;28;19914;-38
2021/08/09 10:33:49;;;;;;;;;;;;;;;44.88;13.65;99734.00;5113653;28;20397;-38
2021/08/09 10:36:17;;;;;;;;;;;;;;;44.57;13.77;99721.53;5113577;28;19986;-38
2021/08/09 10:38:44;;;;;;;;;;;;;;;44.89;13.36;99720.78;5095894;28;19914;-38
2021/08/09 10:41:09;;;;;;;;;;;;;;;45.19;13.77;99728.03;5113311;28;19916;-39
2021/08/09 10:43:40;;;;;;;;;;;;;;;45.21;13.04;99719.16;5113220;28;19930;-39
2021/08/09 10:46:25;;;;;;;;;;;;;;;45.37;13.35;99716.34;5095754;28;19907;-38
2021/08/09 10:48:51;;;;;;;;;;;;;;;44.54;13.96;99717.59;5112702;28;19981;-38
2021/08/09 10:51:16;;;;;;;;;;;;;;;44.75;14.13;99713.50;5094892;28;20360;-38
2021/08/09 10:53:41;;;;;;;;;;;;;;;45.26;13.38;99718.63;5113477;28;19911;-38
2021/08/09 10:56:07;;;;;;;;;;;;;;;45.02;13.26;99706.84;5112893;28;19962;-37
2021/08/09 10:58:41;;;;;;;;;;;;;;;44.67;13.59;99707.28;5111660;28;19915;-38
2021/08/09 11:01:07;;;;;;;;;;;;;;;44.93;13.64;99704.66;5112699;28;20357;-39
2021/08/09 11:03:32;;;;;;;;;;;;;;;45.16;13.33;99711.28;5077684;28;20006;-39
2021/08/09 11:05:57;;;;;;;;;;;;;;;45.39;13.07;99705.47;5112782;28;19908;-39
2021/08/09 11:08:23;;;;;;;;;;;;;;;45.91;13.07;99709.25;5113360;28;19908;-40
2021/08/09 11:10:51;;;;;;;;;;;;;;;45.94;13.18;99699.13;5112882;28;20410;-39
2021/08/09 11:13:16;;;;;;;;;;;;;;;46.34;12.87;99699.50;5112640;28;19921;-39
2021/08/09 11:16:02;;;;;;;;;;;;;;;46.35;13.07;99694.69;5077759;28;19995;-40
2021/08/09 11:18:28;;;;;;;;;;;;;;;45.80;12.91;99687.06;5111862;28;19927;-39
2021/08/09 11:21:04;;;;;;;;;;;;;;;45.86;12.57;99681.69;5112654;28;19911;-40
2021/08/09 11:23:36;;;;;;;;;;;;;;;46.06;12.72;99680.72;5112762;28;19908;-39
2021/08/09 11:26:01;;;;;;;;;;;;;;;45.73;12.83;99687.25;5112437;28;20002;-39
2021/08/09 11:28:26;;;;;;;;;;;;;;;45.39;13.02;99677.41;5112671;28;19951;-38
2021/08/09 11:30:58;;;;;;;;;;;;;;;45.84;12.67;99675.72;5112550;28;19930;-37
2021/08/09 11:33:26;;;;;;;;;;;;;;;45.50;12.71;99667.88;5112563;28;19912;-37
2021/08/09 11:35:52;;;;;;;;;;;;;;;45.09;13.45;99672.97;5112644;28;19912;-36
2021/08/09 11:38:18;;;;;;;;;;;;;;;45.31;12.51;99661.97;5112436;28;20361;-39
2021/08/09 11:40:50;;;;;;;;;;;;;;;45.90;12.68;99665.50;5111757;28;20386;-38
2021/08/09 11:43:19;;;;;;;;;;;;;;;45.50;12.79;99657.41;5112264;28;20435;-38
2021/08/09 11:45:44;;;;;;;;;;;;;;;45.44;13.04;99650.78;5094164;28;19998;-38
2021/08/09 11:48:09;;;;;;;;;;;;;;;44.22;13.17;99620.97;5112365;28;20379;-38
2021/08/09 11:50:35;;;;;;;;;;;;;;;44.86;13.00;99654.28;5112392;28;19916;-37
2021/08/09 11:53:00;;;;;;;;;;;;;;;45.01;13.18;99644.31;5112037;28;20293;-38
2021/08/09 11:55:26;;;;;;;;;;;;;;;44.12;13.74;99644.47;5112210;28;19907;-39
2021/08/09 11:57:51;;;;;;;;;;;;;;;44.41;13.12;99636.16;5112177;28;19912;-38
2021/08/09 12:00:16;;;;;;;;;;;;;;;44.76;13.19;99632.91;5093804;28;19919;-38
2021/08/09 12:03:00;;;;;;;;;;;;;;;45.12;13.33;99637.59;5111775;28;20397;-40
2021/08/09 12:05:26;;;;;;;;;;;;;;;45.38;12.84;99622.44;5111596;28;19914;-39
2021/08/09 12:08:04;;;;;;;;;;;;;;;43.91;14.21;99626.88;5111827;28;20010;-39
2021/08/09 12:10:29;;;;;;;;;;;;;;;44.90;12.67;99629.78;5111694;28;19908;-38
2021/08/09 12:12:55;;;;;;;;;;;;;;;45.74;12.25;99626.25;5111482;28;20014;-38
2021/08/09 12:15:20;;;;;;;;;;;;;;;46.40;11.93;99623.78;5111586;28;20348;-38
2021/08/09 12:18:01;;;;;;;;;;;;;;;46.14;11.26;99621.00;5111917;28;20363;-39
2021/08/09 12:20:27;;;;;;;;;;;;;;;46.18;11.38;99615.28;5111334;28;19911;-39
2021/08/09 12:22:53;;;;;;;;;;;;;;;45.88;11.47;99616.59;5111583;28;20056;-39
2021/08/09 12:25:20;;;;;;;;;;;;;;;46.28;10.77;99607.72;5111473;28;19908;-39
2021/08/09 12:27:45;;;;;;;;;;;;;;;45.77;11.35;99608.50;5111432;28;20294;-38
2021/08/09 12:30:11;;;;;;;;;;;;;;;45.63;11.92;99604.84;5092980;28;19915;-37
2021/08/09 12:32:39;;;;;;;;;;;;;;;45.04;12.05;99597.72;5111284;28;19984;-38
2021/08/09 12:35:05;;;;;;;;;;;;;;;44.74;11.92;99594.06;5111024;28;19911;-38
2021/08/09 12:37:31;;;;;;;;;;;;;;;44.62;12.29;99594.81;5111335;28;20240;-38
2021/08/09 12:40:12;;;;;;;;;;;;;;;44.87;12.11;99588.53;5093225;28;19912;-38
2021/08/09 12:42:38;;;;;;;;;;;;;;;44.20;12.80;99584.19;5110802;28;20321;-39
2021/08/09 12:45:03;;;;;;;;;;;;;;;44.37;13.25;99584.19;5111047;28;19919;-39